createdAt,value
2022-10-11T00:00:14.062Z,12.37
2022-10-11T00:01:14.120Z,12.32
2022-10-11T00:02:14.074Z,12.35
2022-10-11T00:03:14.051Z,12.32
2022-10-11T00:04:14.058Z,12.24
2022-10-11T00:05:14.030Z,12.21
2022-10-11T00:06:14.030Z,12.24
2022-10-11T00:07:14.050Z,12.20
2022-10-11T00:08:14.011Z,12.21
2022-10-11T00:09:13.993Z,12.20
2022-10-11T00:10:13.989Z,12.15
2022-10-11T00:11:13.975Z,12.06
2022-10-11T00:12:13.998Z,12.00
2022-10-11T00:13:13.966Z,12.02
2022-10-11T00:14:13.960Z,11.95
2022-10-11T00:15:13.957Z,12.02
2022-10-11T00:16:13.944Z,12.00
2022-10-11T00:17:13.983Z,11.97
2022-10-11T00:18:13.954Z,11.86
2022-10-11T00:19:13.920Z,11.86
2022-10-11T00:20:13.913Z,11.84
2022-10-11T00:21:13.904Z,11.81
2022-10-11T00:22:13.919Z,11.81
2022-10-11T00:23:13.886Z,11.81
2022-10-11T00:24:13.881Z,11.77
2022-10-11T00:25:13.877Z,11.75
2022-10-11T00:26:13.866Z,11.72
2022-10-11T00:27:13.885Z,11.69
2022-10-11T00:28:13.903Z,11.63
2022-10-11T00:29:13.847Z,11.62
2022-10-11T00:30:13.836Z,11.70
2022-10-11T00:31:13.833Z,11.60
2022-10-11T00:32:13.847Z,11.63
2022-10-11T00:33:13.810Z,11.63
2022-10-11T00:34:13.809Z,11.60
2022-10-11T00:35:13.802Z,11.65
2022-10-11T00:36:13.788Z,11.62
2022-10-11T00:37:13.805Z,11.63
2022-10-11T00:38:13.783Z,11.55
2022-10-11T00:39:14.512Z,11.70
2022-10-11T00:40:14.776Z,11.69
2022-10-11T00:41:13.753Z,11.63
2022-10-11T00:42:13.770Z,11.59
2022-10-11T00:43:13.739Z,11.55
2022-10-11T00:44:13.741Z,11.51
2022-10-11T00:45:13.732Z,11.51
2022-10-11T00:46:13.714Z,11.40
2022-10-11T00:47:13.729Z,11.51
2022-10-11T00:48:13.701Z,11.44
2022-10-11T00:49:13.697Z,11.50
2022-10-11T00:50:13.689Z,11.54
2022-10-11T00:51:13.707Z,11.55
2022-10-11T00:52:13.670Z,11.50
2022-10-11T00:53:13.664Z,11.54
2022-10-11T00:54:13.661Z,11.43
2022-10-11T00:55:13.646Z,11.45
2022-10-11T00:56:13.673Z,11.45
2022-10-11T00:57:13.631Z,11.40
2022-10-11T00:58:13.626Z,11.43
2022-10-11T00:59:13.619Z,11.37
2022-10-11T01:00:13.612Z,11.41
2022-10-11T01:01:14.715Z,11.37
2022-10-11T01:02:13.597Z,11.33
2022-10-11T01:03:13.594Z,11.35
2022-10-11T01:04:13.583Z,11.27
2022-10-11T01:05:30.181Z,11.29
2022-10-11T01:06:15.591Z,11.27
2022-10-11T01:07:13.558Z,11.33
2022-10-11T01:08:14.714Z,11.23
2022-10-11T01:09:13.559Z,11.25
2022-10-11T01:10:13.533Z,11.25
2022-10-11T01:11:13.519Z,11.18
2022-10-11T01:12:13.550Z,11.08
2022-10-11T01:13:13.513Z,11.17
2022-10-11T01:14:13.500Z,11.10
2022-10-11T01:15:13.498Z,11.07
2022-10-11T01:16:13.488Z,11.11
2022-10-11T01:17:13.516Z,11.05
2022-10-11T01:18:13.473Z,11.04
2022-10-11T01:19:13.467Z,11.00
2022-10-11T01:20:13.457Z,11.07
2022-10-11T01:21:13.451Z,11.10
2022-10-11T01:22:13.471Z,11.04
2022-10-11T01:23:13.430Z,10.99
2022-10-11T01:24:13.429Z,11.02
2022-10-11T01:25:13.421Z,10.97
2022-10-11T01:26:13.412Z,10.94
2022-10-11T01:27:13.435Z,10.92
2022-10-11T01:28:13.517Z,10.87
2022-10-11T01:29:13.392Z,10.89
2022-10-11T01:30:13.378Z,10.79
2022-10-11T01:31:13.370Z,10.79
2022-10-11T01:32:13.389Z,10.69
2022-10-11T01:33:13.357Z,10.67
2022-10-11T01:34:13.346Z,10.68
2022-10-11T01:35:13.340Z,10.60
2022-10-11T01:36:13.334Z,10.57
2022-10-11T01:37:13.352Z,10.59
2022-10-11T01:38:13.320Z,10.49
2022-10-11T01:39:13.315Z,10.54
2022-10-11T01:40:13.305Z,10.56
2022-10-11T01:41:13.300Z,10.51
2022-10-11T01:42:13.314Z,10.51
2022-10-11T01:43:13.289Z,10.44
2022-10-11T01:44:13.272Z,10.49
2022-10-11T01:45:13.262Z,10.53
2022-10-11T01:46:13.261Z,10.64
2022-10-11T01:47:13.288Z,10.48
2022-10-11T01:48:13.241Z,10.41
2022-10-11T01:49:13.249Z,10.41
2022-10-11T01:50:13.228Z,10.41
2022-10-11T01:51:13.213Z,10.54
2022-10-11T01:52:14.250Z,10.51
2022-10-11T01:53:13.217Z,10.54
2022-10-11T01:54:13.198Z,10.57
2022-10-11T01:55:13.193Z,10.40
2022-10-11T01:56:13.181Z,10.53
2022-10-11T01:57:13.205Z,10.44
2022-10-11T01:58:13.162Z,10.37
2022-10-11T01:59:13.158Z,10.46
2022-10-11T02:00:13.146Z,10.34
2022-10-11T02:01:13.177Z,10.34
2022-10-11T02:02:13.133Z,10.25
2022-10-11T02:03:13.151Z,10.20
2022-10-11T02:04:13.121Z,10.12
2022-10-11T02:05:13.106Z,10.12
2022-10-11T02:06:13.107Z,9.95
2022-10-11T02:07:13.094Z,10.04
2022-10-11T02:08:13.110Z,10.01
2022-10-11T02:09:13.079Z,9.89
2022-10-11T02:10:13.074Z,9.79
2022-10-11T02:11:13.063Z,9.80
2022-10-11T02:12:13.059Z,9.77
2022-10-11T02:13:13.078Z,9.74
2022-10-11T02:14:13.048Z,9.73
2022-10-11T02:15:13.039Z,9.69
2022-10-11T02:16:13.033Z,9.69
2022-10-11T02:17:13.023Z,9.69
2022-10-11T02:18:13.047Z,9.56
2022-10-11T02:19:13.008Z,9.56
2022-10-11T02:20:13.002Z,9.65
2022-10-11T02:21:12.992Z,9.59
2022-10-11T02:22:12.984Z,9.51
2022-10-11T02:23:13.002Z,9.62
2022-10-11T02:24:12.969Z,9.61
2022-10-11T02:25:12.962Z,9.40
2022-10-11T02:26:12.939Z,9.47
2022-10-11T02:27:13.944Z,9.43
2022-10-11T02:28:13.019Z,9.39
2022-10-11T02:29:12.930Z,9.46
2022-10-11T02:30:12.922Z,9.39
2022-10-11T02:31:12.914Z,9.29
2022-10-11T02:32:12.907Z,9.31
2022-10-11T02:33:12.931Z,9.29
2022-10-11T02:34:12.892Z,9.23
2022-10-11T02:35:12.882Z,9.28
2022-10-11T02:36:12.879Z,9.26
2022-10-11T02:37:12.871Z,9.14
2022-10-11T02:38:12.894Z,9.16
2022-10-11T02:39:12.858Z,8.95
2022-10-11T02:40:12.856Z,8.81
2022-10-11T02:41:12.840Z,8.66
2022-10-11T02:42:12.829Z,8.67
2022-10-11T02:43:13.865Z,8.69
2022-10-11T02:44:12.820Z,8.66
2022-10-11T02:45:12.817Z,8.55
2022-10-11T02:46:12.807Z,8.66
2022-10-11T02:47:12.802Z,8.61
2022-10-11T02:48:12.793Z,8.61
2022-10-11T02:49:12.806Z,8.51
2022-10-11T02:50:12.773Z,8.49
2022-10-11T02:51:12.774Z,8.49
2022-10-11T02:52:12.758Z,8.46
2022-10-11T02:53:12.771Z,8.41
2022-10-11T02:54:12.744Z,8.38
2022-10-11T02:55:12.737Z,8.41
2022-10-11T02:56:12.730Z,8.44
2022-10-11T02:57:12.721Z,8.41
2022-10-11T02:58:12.748Z,8.42
2022-10-11T02:59:12.706Z,8.41
2022-10-11T03:00:12.701Z,8.41
2022-10-11T03:01:12.710Z,8.45
2022-10-11T03:02:12.688Z,8.42
2022-10-11T03:03:12.704Z,8.33
2022-10-11T03:04:12.667Z,8.26
2022-10-11T03:05:12.668Z,8.28
2022-10-11T03:06:12.663Z,8.15
2022-10-11T03:07:12.647Z,8.09
2022-10-11T03:08:12.666Z,8.13
2022-10-11T03:09:12.632Z,8.09
2022-10-11T03:10:12.620Z,8.06
2022-10-11T03:11:12.616Z,8.06
2022-10-11T03:12:12.608Z,8.05
2022-10-11T03:13:17.287Z,7.97
2022-10-11T03:14:14.617Z,7.91
2022-10-11T03:15:12.586Z,7.85
2022-10-11T03:16:12.892Z,7.57
2022-10-11T03:17:35.195Z,7.45
2022-10-11T03:18:14.589Z,7.35
2022-10-11T03:19:16.907Z,7.35
2022-10-11T03:20:14.545Z,7.40
2022-10-11T03:21:12.542Z,7.36
2022-10-11T03:22:12.538Z,7.40
2022-10-11T03:23:12.548Z,7.33
2022-10-11T03:24:12.515Z,7.23
2022-10-11T03:25:12.508Z,7.21
2022-10-11T03:26:12.502Z,7.24
2022-10-11T03:27:12.498Z,7.20
2022-10-11T03:28:12.545Z,7.11
2022-10-11T03:29:12.477Z,7.20
2022-10-11T03:30:16.133Z,7.20
2022-10-11T03:31:14.457Z,7.21
2022-10-11T03:32:12.454Z,7.18
2022-10-11T03:33:12.470Z,7.21
2022-10-11T03:34:12.438Z,7.20
2022-10-11T03:35:12.437Z,7.17
2022-10-11T03:36:12.429Z,7.17
2022-10-11T03:37:12.421Z,7.23
2022-10-11T03:38:13.094Z,7.18
2022-10-11T03:39:13.391Z,7.15
2022-10-11T03:40:12.389Z,7.13
2022-10-11T03:41:12.392Z,7.13
2022-10-11T03:42:12.375Z,7.15
2022-10-11T03:43:12.389Z,7.03
2022-10-11T03:44:12.355Z,7.02
2022-10-11T03:45:12.348Z,7.02
2022-10-11T03:46:12.341Z,7.05
2022-10-11T03:47:12.329Z,6.95
2022-10-11T03:48:12.349Z,6.82
2022-10-11T03:49:12.318Z,6.93
2022-10-11T03:50:12.307Z,7.11
2022-10-11T03:51:12.296Z,6.84
2022-10-11T03:52:12.298Z,6.97
2022-10-11T03:53:12.309Z,7.03
2022-10-11T03:54:12.279Z,6.88
2022-10-11T03:55:12.272Z,6.95
2022-10-11T03:56:12.488Z,6.87
2022-10-11T03:57:12.253Z,6.93
2022-10-11T03:58:12.274Z,6.97
2022-10-11T03:59:12.244Z,6.85
2022-10-11T04:00:12.228Z,6.82
2022-10-11T04:01:12.211Z,6.81
2022-10-11T04:02:13.312Z,6.78
2022-10-11T04:03:12.232Z,6.87
2022-10-11T04:04:25.683Z,6.72
2022-10-11T04:05:12.196Z,6.78
2022-10-11T04:06:12.199Z,6.81
2022-10-11T04:07:12.196Z,6.78
2022-10-11T04:08:12.564Z,6.75
2022-10-11T04:09:13.184Z,6.72
2022-10-11T04:10:12.155Z,6.77
2022-10-11T04:11:12.152Z,6.78
2022-10-11T04:12:12.151Z,6.67
2022-10-11T04:13:12.177Z,6.70
2022-10-11T04:14:12.142Z,6.66
2022-10-11T04:15:12.122Z,6.62
2022-10-11T04:16:12.117Z,6.72
2022-10-11T04:17:12.109Z,6.62
2022-10-11T04:18:12.135Z,6.72
2022-10-11T04:19:12.106Z,6.59
2022-10-11T04:20:12.091Z,6.45
2022-10-11T04:21:12.085Z,6.44
2022-10-11T04:22:12.078Z,6.45
2022-10-11T04:23:12.100Z,6.39
2022-10-11T04:24:12.067Z,6.26
2022-10-11T04:25:12.046Z,6.30
2022-10-11T04:26:12.043Z,6.17
2022-10-11T04:27:12.041Z,6.28
2022-10-11T04:28:12.097Z,6.22
2022-10-11T04:29:12.015Z,6.17
2022-10-11T04:30:12.013Z,6.09
2022-10-11T04:31:12.004Z,6.24
2022-10-11T04:32:12.000Z,6.16
2022-10-11T04:33:12.026Z,6.26
2022-10-11T04:34:11.979Z,6.14
2022-10-11T04:35:11.975Z,6.22
2022-10-11T04:36:11.978Z,6.22
2022-10-11T04:37:11.951Z,6.19
2022-10-11T04:38:11.979Z,6.07
2022-10-11T04:39:11.939Z,6.17
2022-10-11T04:40:11.929Z,6.16
2022-10-11T04:41:11.951Z,5.94
2022-10-11T04:42:11.923Z,5.91
2022-10-11T04:43:11.938Z,5.91
2022-10-11T04:44:11.904Z,5.91
2022-10-11T04:45:11.896Z,5.83
2022-10-11T04:46:12.061Z,5.87
2022-10-11T04:47:11.876Z,5.98
2022-10-11T04:48:11.913Z,5.87
2022-10-11T04:49:11.866Z,5.87
2022-10-11T04:50:11.861Z,5.82
2022-10-11T04:51:11.847Z,5.89
2022-10-11T04:52:11.844Z,5.72
2022-10-11T04:53:11.861Z,5.69
2022-10-11T04:54:11.823Z,5.69
2022-10-11T04:55:11.851Z,5.73
2022-10-11T04:56:11.814Z,5.66
2022-10-11T04:57:11.797Z,5.54
2022-10-11T04:58:11.812Z,5.68
2022-10-11T04:59:11.843Z,5.62
2022-10-11T05:00:11.781Z,5.56
2022-10-11T05:01:11.768Z,5.59
2022-10-11T05:02:11.783Z,5.53
2022-10-11T05:03:11.796Z,5.54
2022-10-11T05:04:11.741Z,5.57
2022-10-11T05:05:11.733Z,5.48
2022-10-11T05:06:12.263Z,5.41
2022-10-11T05:07:11.722Z,5.41
2022-10-11T05:08:11.729Z,5.39
2022-10-11T05:09:12.704Z,5.39
2022-10-11T05:10:11.703Z,5.30
2022-10-11T05:11:11.691Z,5.35
2022-10-11T05:12:11.680Z,5.25
2022-10-11T05:13:11.672Z,5.44
2022-10-11T05:14:11.694Z,5.28
2022-10-11T05:15:11.655Z,5.41
2022-10-11T05:16:12.108Z,5.25
2022-10-11T05:17:11.643Z,5.29
2022-10-11T05:18:11.637Z,5.23
2022-10-11T05:19:11.654Z,5.26
2022-10-11T05:20:11.616Z,5.17
2022-10-11T05:21:11.615Z,5.32
2022-10-11T05:22:11.606Z,5.25
2022-10-11T05:23:11.600Z,5.21
2022-10-11T05:24:11.628Z,5.29
2022-10-11T05:25:11.574Z,5.20
2022-10-11T05:26:11.574Z,5.15
2022-10-11T05:27:11.562Z,5.20
2022-10-11T05:28:11.619Z,5.08
2022-10-11T05:29:11.586Z,5.20
2022-10-11T05:30:11.547Z,5.20
2022-10-11T05:31:11.534Z,5.21
2022-10-11T05:32:11.527Z,5.33
2022-10-11T05:33:11.519Z,5.33
2022-10-11T05:34:11.540Z,5.20
2022-10-11T05:35:11.498Z,5.25
2022-10-11T05:36:11.492Z,5.14
2022-10-11T05:37:11.481Z,5.20
2022-10-11T05:38:11.480Z,5.12
2022-10-11T05:39:11.532Z,5.30
2022-10-11T05:40:11.458Z,5.28
2022-10-11T05:41:11.455Z,5.21
2022-10-11T05:42:11.454Z,5.28
2022-10-11T05:43:11.441Z,5.20
2022-10-11T05:44:11.477Z,5.12
2022-10-11T05:45:11.437Z,5.25
2022-10-11T05:46:11.420Z,5.17
2022-10-11T05:47:11.408Z,5.20
2022-10-11T05:48:11.406Z,5.08
2022-10-11T05:49:11.417Z,5.12
2022-10-11T05:50:11.384Z,5.15
2022-10-11T05:51:11.380Z,5.11
2022-10-11T05:52:11.374Z,5.08
2022-10-11T05:53:11.365Z,5.11
2022-10-11T05:54:11.382Z,5.14
2022-10-11T05:55:11.353Z,5.18
2022-10-11T05:56:11.352Z,5.20
2022-10-11T05:57:11.329Z,5.29
2022-10-11T05:58:11.322Z,5.20
2022-10-11T05:59:11.340Z,5.21
2022-10-11T06:00:11.315Z,5.15
2022-10-11T06:01:11.399Z,5.21
2022-10-11T06:02:11.293Z,5.33
2022-10-11T06:03:11.292Z,5.23
2022-10-11T06:04:11.311Z,5.26
2022-10-11T06:05:11.274Z,5.21
2022-10-11T06:06:11.271Z,5.25
2022-10-11T06:07:11.261Z,5.21
2022-10-11T06:08:11.249Z,5.29
2022-10-11T06:09:11.271Z,5.39
2022-10-11T06:10:11.281Z,5.41
2022-10-11T06:11:12.154Z,5.35
2022-10-11T06:12:12.216Z,5.41
2022-10-11T06:13:12.212Z,5.47
2022-10-11T06:14:11.297Z,5.44
2022-10-11T06:15:11.205Z,5.47
2022-10-11T06:16:11.191Z,5.48
2022-10-11T06:17:11.190Z,5.57
2022-10-11T06:18:11.177Z,5.65
2022-10-11T06:19:11.197Z,5.65
2022-10-11T06:20:11.166Z,5.72
2022-10-11T06:21:11.150Z,5.80
2022-10-11T06:22:11.176Z,5.82
2022-10-11T06:23:11.131Z,5.94
2022-10-11T06:24:11.162Z,5.93
2022-10-11T06:25:11.116Z,5.89
2022-10-11T06:26:11.123Z,5.91
2022-10-11T06:27:11.112Z,5.94
2022-10-11T06:28:11.163Z,5.97
2022-10-11T06:29:11.123Z,5.94
2022-10-11T06:30:11.079Z,6.04
2022-10-11T06:31:11.083Z,6.11
2022-10-11T06:32:11.065Z,6.17
2022-10-11T06:33:11.060Z,6.20
2022-10-11T06:34:11.075Z,6.14
2022-10-11T06:35:11.045Z,6.19
2022-10-11T06:36:11.039Z,6.24
2022-10-11T06:37:11.031Z,6.35
2022-10-11T06:38:11.049Z,6.33
2022-10-11T06:39:11.046Z,6.56
2022-10-11T06:40:11.012Z,6.59
2022-10-11T06:41:11.003Z,6.64
2022-10-11T06:42:10.988Z,6.64
2022-10-11T06:43:10.992Z,6.74
2022-10-11T06:44:14.135Z,6.75
2022-10-11T06:45:11.974Z,6.67
2022-10-11T06:46:10.968Z,6.39
2022-10-11T06:47:10.956Z,6.64
2022-10-11T06:48:10.951Z,6.60
2022-10-11T06:49:10.960Z,6.60
2022-10-11T06:50:10.931Z,6.79
2022-10-11T06:51:10.931Z,6.88
2022-10-11T06:52:10.951Z,6.84
2022-10-11T06:53:10.908Z,7.11
2022-10-11T06:54:10.926Z,7.21
2022-10-11T06:55:10.906Z,7.25
2022-10-11T06:56:10.888Z,7.29
2022-10-11T06:57:10.877Z,7.29
2022-10-11T06:58:10.866Z,7.38
2022-10-11T06:59:10.893Z,7.51
2022-10-11T07:00:12.831Z,7.51
2022-10-11T07:01:11.891Z,7.75
2022-10-11T07:02:10.838Z,7.61
2022-10-11T07:03:10.829Z,7.66
2022-10-11T07:04:10.854Z,7.70
2022-10-11T07:05:10.824Z,7.72
2022-10-11T07:06:11.146Z,7.88
2022-10-11T07:07:10.815Z,7.79
2022-10-11T07:08:10.833Z,7.76
2022-10-11T07:09:10.816Z,7.61
2022-10-11T07:10:10.775Z,7.72
2022-10-11T07:11:10.777Z,7.67
2022-10-11T07:12:10.768Z,7.72
2022-10-11T07:13:16.244Z,7.57
2022-10-11T07:14:12.778Z,7.56
2022-10-11T07:15:10.738Z,7.77
2022-10-11T07:16:10.734Z,7.76
2022-10-11T07:17:10.734Z,7.69
2022-10-11T07:18:10.719Z,7.69
2022-10-11T07:19:10.746Z,7.61
2022-10-11T07:20:10.710Z,7.90
2022-10-11T07:21:10.696Z,8.10
2022-10-11T07:22:10.693Z,8.28
2022-10-11T07:23:10.696Z,8.45
2022-10-11T07:24:10.702Z,8.64
2022-10-11T07:25:10.697Z,8.66
2022-10-11T07:26:10.666Z,8.84
2022-10-11T07:27:10.659Z,8.79
2022-10-11T07:28:10.666Z,8.48
2022-10-11T07:29:10.633Z,8.31
2022-10-11T07:30:10.658Z,8.27
2022-10-11T07:31:10.630Z,8.46
2022-10-11T07:32:10.635Z,8.51
2022-10-11T07:33:10.593Z,8.74
2022-10-11T07:34:10.591Z,8.85
2022-10-11T07:35:10.604Z,8.70
2022-10-11T07:36:11.574Z,8.74
2022-10-11T07:37:10.563Z,8.79
2022-10-11T07:38:10.561Z,8.94
2022-10-11T07:39:10.589Z,9.06
2022-10-11T07:40:10.540Z,9.18
2022-10-11T07:41:10.541Z,9.22
2022-10-11T07:42:10.539Z,9.28
2022-10-11T07:43:10.524Z,9.23
2022-10-11T07:44:10.540Z,9.19
2022-10-11T07:45:10.499Z,9.36
2022-10-11T07:46:10.904Z,9.46
2022-10-11T07:47:11.509Z,9.47
2022-10-11T07:48:11.488Z,9.59
2022-10-11T07:49:10.497Z,9.74
2022-10-11T07:50:10.458Z,9.84
2022-10-11T07:51:10.456Z,9.92
2022-10-11T07:52:10.442Z,9.64
2022-10-11T07:53:10.436Z,9.55
2022-10-11T07:54:10.452Z,9.61
2022-10-11T07:55:10.419Z,9.74
2022-10-11T07:56:10.426Z,9.46
2022-10-11T07:57:10.403Z,9.23
2022-10-11T07:58:10.395Z,9.25
2022-10-11T07:59:10.407Z,9.43
2022-10-11T08:00:10.380Z,9.34
2022-10-11T08:01:10.439Z,9.40
2022-10-11T08:02:10.358Z,9.73
2022-10-11T08:03:10.351Z,9.91
2022-10-11T08:04:10.374Z,10.05
2022-10-11T08:05:10.340Z,10.33
2022-10-11T08:06:10.626Z,10.13
2022-10-11T08:07:10.321Z,9.32
2022-10-11T08:08:10.325Z,9.21
2022-10-11T08:09:10.332Z,9.21
2022-10-11T08:10:10.318Z,9.08
2022-10-11T08:11:10.292Z,8.94
2022-10-11T08:12:10.284Z,8.95
2022-10-11T08:13:10.277Z,9.08
2022-10-11T08:14:10.454Z,9.19
2022-10-11T08:15:10.267Z,9.14
2022-10-11T08:16:10.254Z,9.04
2022-10-11T08:17:10.248Z,8.95
2022-10-11T08:18:10.258Z,9.06
2022-10-11T08:19:10.259Z,9.16
2022-10-11T08:20:10.230Z,9.34
2022-10-11T08:21:10.221Z,9.16
2022-10-11T08:22:10.213Z,9.11
2022-10-11T08:23:10.201Z,9.39
2022-10-11T08:24:10.227Z,9.44
2022-10-11T08:25:10.192Z,9.43
2022-10-11T08:26:10.184Z,9.92
2022-10-11T08:27:10.181Z,10.22
2022-10-11T08:28:10.256Z,10.54
2022-10-11T08:29:10.185Z,10.64
2022-10-11T08:30:10.159Z,10.53
2022-10-11T08:31:10.143Z,10.60
2022-10-11T08:32:10.137Z,9.98
2022-10-11T08:33:10.135Z,9.92
2022-10-11T08:34:10.159Z,9.80
2022-10-11T08:35:10.113Z,9.76
2022-10-11T08:36:10.779Z,10.05
2022-10-11T08:37:10.096Z,10.20
2022-10-11T08:38:10.092Z,9.87
2022-10-11T08:39:10.109Z,9.77
2022-10-11T08:40:10.078Z,10.22
2022-10-11T08:41:10.061Z,10.30
2022-10-11T08:42:10.061Z,10.56
2022-10-11T08:43:10.056Z,10.23
2022-10-11T08:44:10.068Z,9.98
2022-10-11T08:45:11.819Z,9.84
2022-10-11T08:46:11.034Z,9.84
2022-10-11T08:47:10.024Z,9.92
2022-10-11T08:48:10.013Z,10.16
2022-10-11T08:49:10.042Z,10.04
2022-10-11T08:50:10.007Z,10.28
2022-10-11T08:51:09.997Z,10.71
2022-10-11T08:52:09.981Z,10.59
2022-10-11T08:53:09.974Z,10.56
2022-10-11T08:54:10.003Z,10.78
2022-10-11T08:55:10.752Z,10.93
2022-10-11T08:56:09.953Z,10.81
2022-10-11T08:57:09.939Z,10.74
2022-10-11T08:58:09.941Z,11.04
2022-10-11T08:59:09.952Z,11.26
2022-10-11T09:00:09.935Z,11.35
2022-10-11T09:01:09.940Z,11.05
2022-10-11T09:02:09.903Z,10.93
2022-10-11T09:03:10.145Z,10.79
2022-10-11T09:04:09.913Z,10.81
2022-10-11T09:05:09.892Z,10.90
2022-10-11T09:06:10.069Z,11.08
2022-10-11T09:07:10.080Z,11.41
2022-10-11T09:08:09.866Z,11.63
2022-10-11T09:09:09.888Z,11.99
2022-10-11T09:10:09.836Z,11.88
2022-10-11T09:11:09.870Z,11.88
2022-10-11T09:12:09.823Z,11.45
2022-10-11T09:13:09.817Z,11.40
2022-10-11T09:14:09.838Z,11.62
2022-10-11T09:15:09.795Z,11.65
2022-10-11T09:16:09.828Z,11.73
2022-10-11T09:17:09.784Z,11.86
2022-10-11T09:18:09.803Z,11.90
2022-10-11T09:19:09.793Z,11.90
2022-10-11T09:20:09.759Z,11.80
2022-10-11T09:21:09.750Z,11.77
2022-10-11T09:22:09.746Z,11.66
2022-10-11T09:23:09.732Z,11.99
2022-10-11T09:24:09.792Z,12.03
2022-10-11T09:25:09.729Z,12.28
2022-10-11T09:26:09.880Z,12.39
2022-10-11T09:27:09.708Z,12.24
2022-10-11T09:28:09.757Z,12.22
2022-10-11T09:29:09.757Z,12.32
2022-10-11T09:30:09.679Z,11.87
2022-10-11T09:31:09.673Z,11.65
2022-10-11T09:32:09.692Z,12.02
2022-10-11T09:33:09.660Z,12.10
2022-10-11T09:34:09.705Z,12.24
2022-10-11T09:35:09.646Z,12.18
2022-10-11T09:36:09.671Z,11.91
2022-10-11T09:37:09.637Z,11.52
2022-10-11T09:38:09.621Z,11.63
2022-10-11T09:39:09.641Z,11.62
2022-10-11T09:40:09.604Z,11.87
2022-10-11T09:41:09.612Z,12.18
2022-10-11T09:42:09.608Z,12.47
2022-10-11T09:43:09.592Z,12.65
2022-10-11T09:44:09.609Z,12.49
2022-10-11T09:45:09.568Z,12.60
2022-10-11T09:46:09.566Z,12.70
2022-10-11T09:47:09.560Z,12.82
2022-10-11T09:48:09.549Z,12.80
2022-10-11T09:49:09.549Z,12.79
2022-10-11T09:50:09.557Z,12.64
2022-10-11T09:51:09.520Z,12.17
2022-10-11T09:52:09.513Z,11.78
2022-10-11T09:53:09.505Z,11.97
2022-10-11T09:54:09.506Z,12.21
2022-10-11T09:55:09.539Z,12.03
2022-10-11T09:56:09.820Z,12.42
2022-10-11T09:57:09.544Z,12.75
2022-10-11T09:58:09.468Z,12.86
2022-10-11T09:59:09.471Z,12.76
2022-10-11T10:00:09.478Z,12.78
2022-10-11T10:01:09.444Z,12.85
2022-10-11T10:02:09.496Z,12.80
2022-10-11T10:03:09.434Z,12.93
2022-10-11T10:04:09.420Z,13.18
2022-10-11T10:05:41.347Z,13.38
2022-10-11T10:06:09.562Z,13.27
2022-10-11T10:07:09.386Z,13.41
2022-10-11T10:08:09.388Z,13.25
2022-10-11T10:09:09.380Z,13.00
2022-10-11T10:10:09.399Z,12.91
2022-10-11T10:11:09.367Z,13.19
2022-10-11T10:12:09.354Z,13.42
2022-10-11T10:13:09.351Z,13.31
2022-10-11T10:14:09.338Z,13.27
2022-10-11T10:15:09.356Z,13.22
2022-10-11T10:16:09.496Z,13.16
2022-10-11T10:17:09.312Z,13.44
2022-10-11T10:18:09.308Z,13.59
2022-10-11T10:19:09.304Z,13.47
2022-10-11T10:20:09.328Z,13.46
2022-10-11T10:21:09.287Z,13.50
2022-10-11T10:22:09.266Z,13.63
2022-10-11T10:23:10.274Z,13.85
2022-10-11T10:24:09.260Z,13.78
2022-10-11T10:25:09.287Z,13.53
2022-10-11T10:26:09.427Z,13.39
2022-10-11T10:27:09.234Z,13.67
2022-10-11T10:28:09.293Z,13.65
2022-10-11T10:29:09.228Z,13.75
2022-10-11T10:30:09.218Z,13.74
2022-10-11T10:31:09.230Z,13.70
2022-10-11T10:32:14.426Z,13.50
2022-10-11T10:33:11.189Z,13.47
2022-10-11T10:34:09.181Z,13.59
2022-10-11T10:35:09.174Z,13.78
2022-10-11T10:36:09.601Z,13.65
2022-10-11T10:37:09.158Z,13.52
2022-10-11T10:38:09.150Z,13.44
2022-10-11T10:39:09.147Z,13.53
2022-10-11T10:40:09.174Z,13.67
2022-10-11T10:41:09.163Z,13.27
2022-10-11T10:42:09.128Z,13.01
2022-10-11T10:43:09.111Z,12.98
2022-10-11T10:44:09.099Z,13.08
2022-10-11T10:45:12.560Z,13.27
2022-10-11T10:46:10.173Z,13.16
2022-10-11T10:47:09.088Z,13.41
2022-10-11T10:48:09.073Z,13.54
2022-10-11T10:49:34.836Z,13.44
2022-10-11T10:50:11.050Z,13.28
2022-10-11T10:51:10.578Z,13.59
2022-10-11T10:52:10.036Z,13.97
2022-10-11T10:53:09.061Z,13.85
2022-10-11T10:54:09.025Z,13.62
2022-10-11T10:55:09.013Z,13.35
2022-10-11T10:56:09.392Z,13.56
2022-10-11T10:57:08.997Z,14.12
2022-10-11T10:58:08.985Z,14.25
2022-10-11T10:59:09.018Z,14.41
2022-10-11T11:00:08.984Z,14.77
2022-10-11T11:01:09.007Z,14.72
2022-10-11T11:02:28.069Z,13.90
2022-10-11T11:03:10.946Z,13.78
2022-10-11T11:04:08.938Z,13.62
2022-10-11T11:05:08.934Z,13.81
2022-10-11T11:06:09.289Z,13.99
2022-10-11T11:07:08.921Z,13.93
2022-10-11T11:08:08.907Z,14.10
2022-10-11T11:09:08.900Z,13.99
2022-10-11T11:10:08.893Z,13.95
2022-10-11T11:11:08.923Z,13.89
2022-10-11T11:12:08.882Z,13.89
2022-10-11T11:13:08.875Z,14.03
2022-10-11T11:14:08.864Z,14.68
2022-10-11T11:15:08.868Z,14.29
2022-10-11T11:16:08.877Z,14.14
2022-10-11T11:17:08.839Z,14.10
2022-10-11T11:18:08.840Z,14.29
2022-10-11T11:19:08.831Z,14.32
2022-10-11T11:20:08.813Z,14.62
2022-10-11T11:21:08.829Z,14.30
2022-10-11T11:22:08.826Z,14.00
2022-10-11T11:23:08.795Z,14.05
2022-10-11T11:24:08.806Z,14.03
2022-10-11T11:25:08.772Z,14.03
2022-10-11T11:26:09.037Z,13.63
2022-10-11T11:27:09.790Z,13.90
2022-10-11T11:28:08.757Z,14.12
2022-10-11T11:29:08.744Z,14.26
2022-10-11T11:30:08.733Z,14.23
2022-10-11T11:31:09.047Z,14.08
2022-10-11T11:32:08.747Z,14.10
2022-10-11T11:33:08.712Z,13.96
2022-10-11T11:34:08.705Z,14.03
2022-10-11T11:35:08.703Z,14.45
2022-10-11T11:36:08.882Z,14.70
2022-10-11T11:37:08.709Z,14.88
2022-10-11T11:38:08.676Z,14.77
2022-10-11T11:39:08.708Z,15.02
2022-10-11T11:40:08.655Z,15.09
2022-10-11T11:41:08.942Z,14.97
2022-10-11T11:42:08.672Z,14.78
2022-10-11T11:43:08.632Z,14.72
2022-10-11T11:44:08.627Z,14.47
2022-10-11T11:45:08.615Z,14.37
2022-10-11T11:46:08.611Z,14.43
2022-10-11T11:47:08.637Z,14.43
2022-10-11T11:48:08.598Z,14.47
2022-10-11T11:49:12.783Z,14.60
2022-10-11T11:50:09.578Z,14.62
2022-10-11T11:51:08.741Z,14.53
2022-10-11T11:52:08.577Z,14.53
2022-10-11T11:53:08.590Z,14.36
2022-10-11T11:54:08.552Z,14.40
2022-10-11T11:55:08.557Z,14.48
2022-10-11T11:56:08.566Z,14.55
2022-10-11T11:57:08.547Z,14.43
2022-10-11T11:58:08.548Z,14.43
2022-10-11T11:59:08.512Z,14.51
2022-10-11T12:00:08.500Z,14.40
2022-10-11T12:01:08.908Z,14.54
2022-10-11T12:02:08.544Z,14.70
2022-10-11T12:03:08.504Z,14.77
2022-10-11T12:04:08.470Z,15.04
2022-10-11T12:05:08.461Z,15.19
2022-10-11T12:06:08.452Z,15.10
2022-10-11T12:07:16.305Z,15.31
2022-10-11T12:08:10.478Z,15.35
2022-10-11T12:09:08.456Z,15.40
2022-10-11T12:10:08.442Z,15.52
2022-10-11T12:11:08.564Z,15.57
2022-10-11T12:12:08.408Z,15.31
2022-10-11T12:13:08.423Z,15.19
2022-10-11T12:14:08.410Z,14.99
2022-10-11T12:15:08.397Z,15.10
2022-10-11T12:16:08.384Z,14.96
2022-10-11T12:17:08.380Z,15.03
2022-10-11T12:18:08.404Z,14.91
2022-10-11T12:19:08.356Z,15.15
2022-10-11T12:20:08.353Z,15.33
2022-10-11T12:21:08.787Z,15.33
2022-10-11T12:22:08.334Z,15.03
2022-10-11T12:23:08.406Z,14.77
2022-10-11T12:24:08.330Z,14.65
2022-10-11T12:25:08.312Z,14.53
2022-10-11T12:26:08.298Z,14.51
2022-10-11T12:27:08.296Z,14.43
2022-10-11T12:28:08.355Z,14.66
2022-10-11T12:29:08.284Z,15.00
2022-10-11T12:30:08.272Z,15.17
2022-10-11T12:31:08.586Z,15.27
2022-10-11T12:32:08.261Z,14.91
2022-10-11T12:33:08.276Z,14.70
2022-10-11T12:34:08.243Z,14.69
2022-10-11T12:35:08.230Z,14.43
2022-10-11T12:36:08.577Z,14.63
2022-10-11T12:37:08.218Z,14.58
2022-10-11T12:38:08.237Z,14.48
2022-10-11T12:39:08.203Z,14.40
2022-10-11T12:40:08.202Z,14.60
2022-10-11T12:41:08.184Z,14.54
2022-10-11T12:42:08.176Z,14.36
2022-10-11T12:43:08.195Z,14.35
2022-10-11T12:44:08.159Z,14.63
2022-10-11T12:45:08.151Z,14.77
2022-10-11T12:46:08.497Z,14.78
2022-10-11T12:47:08.147Z,14.53
2022-10-11T12:48:08.135Z,14.40
2022-10-11T12:49:08.153Z,14.25
2022-10-11T12:50:08.125Z,14.44
2022-10-11T12:51:08.111Z,14.23
2022-10-11T12:52:08.100Z,14.36
2022-10-11T12:53:08.090Z,14.20
2022-10-11T12:54:26.307Z,14.18
2022-10-11T12:55:10.069Z,14.25
2022-10-11T12:56:08.793Z,14.48
2022-10-11T12:57:11.888Z,14.47
2022-10-11T12:58:09.065Z,14.66
2022-10-11T12:59:09.043Z,14.59
2022-10-11T13:00:08.036Z,14.63
2022-10-11T13:01:08.089Z,14.48
2022-10-11T13:02:08.020Z,14.60
2022-10-11T13:03:08.031Z,14.53
2022-10-11T13:04:08.002Z,14.70
2022-10-11T13:05:07.995Z,14.43